sensor_id;sensor_type;location;lat;lon;timestamp;temperature;humidity
38183;DHT22;23991;52.430;10.586;2022-09-03T00:00:10;18.80;47.40
38183;DHT22;23991;52.430;10.586;2022-09-03T00:03:07;18.80;47.50
38183;DHT22;23991;52.430;10.586;2022-09-03T00:06:15;18.70;47.50
38183;DHT22;23991;52.430;10.586;2022-09-03T00:08:50;18.70;47.60
38183;DHT22;23991;52.430;10.586;2022-09-03T00:11:50;18.70;47.70
38183;DHT22;23991;52.430;10.586;2022-09-03T00:17:14;18.60;47.80
38183;DHT22;23991;52.430;10.586;2022-09-03T00:19:53;18.60;48.00
38183;DHT22;23991;52.430;10.586;2022-09-03T00:22:29;18.40;48.10
38183;DHT22;23991;52.430;10.586;2022-09-03T00:24:58;18.40;48.20
38183;DHT22;23991;52.430;10.586;2022-09-03T00:27:27;18.40;48.20
38183;DHT22;23991;52.430;10.586;2022-09-03T00:30:00;18.40;48.20
38183;DHT22;23991;52.430;10.586;2022-09-03T00:32:49;18.40;48.20
38183;DHT22;23991;52.430;10.586;2022-09-03T00:35:22;18.40;48.30
38183;DHT22;23991;52.430;10.586;2022-09-03T00:37:51;18.30;48.40
38183;DHT22;23991;52.430;10.586;2022-09-03T00:46:33;18.20;48.80
38183;DHT22;23991;52.430;10.586;2022-09-03T00:54:56;18.00;49.00
38183;DHT22;23991;52.430;10.586;2022-09-03T01:00:12;17.90;49.20
38183;DHT22;23991;52.430;10.586;2022-09-03T01:03:08;17.90;49.10
38183;DHT22;23991;52.430;10.586;2022-09-03T01:21:38;17.70;49.80
38183;DHT22;23991;52.430;10.586;2022-09-03T01:24:38;17.70;49.70
38183;DHT22;23991;52.430;10.586;2022-09-03T01:27:35;17.70;49.80
38183;DHT22;23991;52.430;10.586;2022-09-03T01:30:09;17.70;49.90
38183;DHT22;23991;52.430;10.586;2022-09-03T01:45:53;17.30;50.50
38183;DHT22;23991;52.430;10.586;2022-09-03T01:48:43;17.30;50.50
38183;DHT22;23991;52.430;10.586;2022-09-03T01:51:43;17.30;50.80
38183;DHT22;23991;52.430;10.586;2022-09-03T01:54:47;17.30;50.80
38183;DHT22;23991;52.430;10.586;2022-09-03T01:57:48;17.30;50.80
38183;DHT22;23991;52.430;10.586;2022-09-03T02:00:17;17.20;50.90
38183;DHT22;23991;52.430;10.586;2022-09-03T02:02:46;17.20;50.90
38183;DHT22;23991;52.430;10.586;2022-09-03T02:07:46;17.10;51.10
38183;DHT22;23991;52.430;10.586;2022-09-03T02:10:19;17.10;51.10
38183;DHT22;23991;52.430;10.586;2022-09-03T02:13:00;17.10;51.10
38183;DHT22;23991;52.430;10.586;2022-09-03T02:15:27;17.10;51.10
38183;DHT22;23991;52.430;10.586;2022-09-03T02:17:56;17.00;51.20
38183;DHT22;23991;52.430;10.586;2022-09-03T02:20:26;17.00;51.40
38183;DHT22;23991;52.430;10.586;2022-09-03T02:22:53;16.90;51.40
38183;DHT22;23991;52.430;10.586;2022-09-03T02:25:21;16.90;51.50
38183;DHT22;23991;52.430;10.586;2022-09-03T02:27:48;16.90;51.50
38183;DHT22;23991;52.430;10.586;2022-09-03T02:30:15;16.90;51.50
38183;DHT22;23991;52.430;10.586;2022-09-03T02:32:42;16.80;51.70
38183;DHT22;23991;52.430;10.586;2022-09-03T02:35:08;16.80;51.70
38183;DHT22;23991;52.430;10.586;2022-09-03T02:37:33;16.80;51.80
38183;DHT22;23991;52.430;10.586;2022-09-03T02:39:59;16.80;51.80
38183;DHT22;23991;52.430;10.586;2022-09-03T02:42:25;16.80;51.90
38183;DHT22;23991;52.430;10.586;2022-09-03T02:44:54;16.70;52.00
38183;DHT22;23991;52.430;10.586;2022-09-03T02:47:22;16.70;52.10
38183;DHT22;23991;52.430;10.586;2022-09-03T02:49:49;16.70;52.20
38183;DHT22;23991;52.430;10.586;2022-09-03T02:52:15;16.60;52.30
38183;DHT22;23991;52.430;10.586;2022-09-03T02:54:41;16.60;52.40
38183;DHT22;23991;52.430;10.586;2022-09-03T02:57:11;16.60;52.50
38183;DHT22;23991;52.430;10.586;2022-09-03T02:59:37;16.50;52.60
38183;DHT22;23991;52.430;10.586;2022-09-03T03:02:04;16.50;52.80
38183;DHT22;23991;52.430;10.586;2022-09-03T03:04:31;16.40;52.90
38183;DHT22;23991;52.430;10.586;2022-09-03T03:06:58;16.40;53.00
38183;DHT22;23991;52.430;10.586;2022-09-03T03:09:23;16.30;53.10
38183;DHT22;23991;52.430;10.586;2022-09-03T03:11:49;16.30;53.20
38183;DHT22;23991;52.430;10.586;2022-09-03T03:14:16;16.30;53.20
38183;DHT22;23991;52.430;10.586;2022-09-03T03:16:42;16.30;53.30
38183;DHT22;23991;52.430;10.586;2022-09-03T03:19:07;16.30;53.40
38183;DHT22;23991;52.430;10.586;2022-09-03T03:21:33;16.30;53.40
38183;DHT22;23991;52.430;10.586;2022-09-03T03:24:00;16.30;53.30
38183;DHT22;23991;52.430;10.586;2022-09-03T03:26:26;16.30;53.30
38183;DHT22;23991;52.430;10.586;2022-09-03T03:28:55;16.30;53.30
38183;DHT22;23991;52.430;10.586;2022-09-03T03:31:22;16.20;53.40
38183;DHT22;23991;52.430;10.586;2022-09-03T03:33:58;16.20;53.50
38183;DHT22;23991;52.430;10.586;2022-09-03T03:36:26;16.20;53.70
38183;DHT22;23991;52.430;10.586;2022-09-03T03:38:54;16.10;53.80
38183;DHT22;23991;52.430;10.586;2022-09-03T03:41:22;16.10;53.90
38183;DHT22;23991;52.430;10.586;2022-09-03T03:43:54;16.10;53.90
38183;DHT22;23991;52.430;10.586;2022-09-03T03:46:21;16.00;54.00
38183;DHT22;23991;52.430;10.586;2022-09-03T03:48:48;16.00;53.90
38183;DHT22;23991;52.430;10.586;2022-09-03T03:51:15;16.00;54.00
38183;DHT22;23991;52.430;10.586;2022-09-03T03:53:41;15.90;54.10
38183;DHT22;23991;52.430;10.586;2022-09-03T03:56:11;15.90;54.20
38183;DHT22;23991;52.430;10.586;2022-09-03T03:58:37;15.90;54.40
38183;DHT22;23991;52.430;10.586;2022-09-03T04:01:21;15.80;54.50
38183;DHT22;23991;52.430;10.586;2022-09-03T04:03:47;15.80;54.50
38183;DHT22;23991;52.430;10.586;2022-09-03T04:06:16;15.80;54.50
38183;DHT22;23991;52.430;10.586;2022-09-03T04:08:43;15.80;54.60
38183;DHT22;23991;52.430;10.586;2022-09-03T04:11:11;15.70;54.80
38183;DHT22;23991;52.430;10.586;2022-09-03T04:13:39;15.60;54.90
38183;DHT22;23991;52.430;10.586;2022-09-03T04:18:31;15.50;55.40
38183;DHT22;23991;52.430;10.586;2022-09-03T04:21:06;15.40;55.70
38183;DHT22;23991;52.430;10.586;2022-09-03T04:23:43;15.40;55.80
38183;DHT22;23991;52.430;10.586;2022-09-03T04:26:11;15.30;55.80
38183;DHT22;23991;52.430;10.586;2022-09-03T04:28:37;15.30;55.90
38183;DHT22;23991;52.430;10.586;2022-09-03T04:31:06;15.30;56.00
38183;DHT22;23991;52.430;10.586;2022-09-03T04:33:32;15.30;56.00
38183;DHT22;23991;52.430;10.586;2022-09-03T04:38:34;15.30;56.10
38183;DHT22;23991;52.430;10.586;2022-09-03T04:41:00;15.30;56.10
38183;DHT22;23991;52.430;10.586;2022-09-03T04:43:27;15.20;56.20
38183;DHT22;23991;52.430;10.586;2022-09-03T04:46:00;15.20;56.10
38183;DHT22;23991;52.430;10.586;2022-09-03T04:48:27;15.30;56.00
38183;DHT22;23991;52.430;10.586;2022-09-03T04:50:53;15.30;56.00
38183;DHT22;23991;52.430;10.586;2022-09-03T04:53:21;15.30;55.90
38183;DHT22;23991;52.430;10.586;2022-09-03T04:55:47;15.30;56.00
38183;DHT22;23991;52.430;10.586;2022-09-03T04:58:12;15.30;55.90
38183;DHT22;23991;52.430;10.586;2022-09-03T05:00:38;15.40;55.80
38183;DHT22;23991;52.430;10.586;2022-09-03T05:03:04;15.40;55.70
38183;DHT22;23991;52.430;10.586;2022-09-03T05:05:32;15.40;55.70
38183;DHT22;23991;52.430;10.586;2022-09-03T05:08:02;15.40;55.60
38183;DHT22;23991;52.430;10.586;2022-09-03T05:10:29;15.50;55.40
38183;DHT22;23991;52.430;10.586;2022-09-03T05:13:03;15.60;55.30
38183;DHT22;23991;52.430;10.586;2022-09-03T05:15:29;15.60;55.20
38183;DHT22;23991;52.430;10.586;2022-09-03T05:17:57;15.60;55.10
38183;DHT22;23991;52.430;10.586;2022-09-03T05:20:23;15.70;55.00
38183;DHT22;23991;52.430;10.586;2022-09-03T05:22:49;15.70;55.00
38183;DHT22;23991;52.430;10.586;2022-09-03T05:25:15;15.80;54.90
38183;DHT22;23991;52.430;10.586;2022-09-03T05:27:40;15.80;54.70
38183;DHT22;23991;52.430;10.586;2022-09-03T05:30:06;15.90;54.60
38183;DHT22;23991;52.430;10.586;2022-09-03T05:32:32;15.90;54.50
38183;DHT22;23991;52.430;10.586;2022-09-03T05:34:58;16.10;54.30
38183;DHT22;23991;52.430;10.586;2022-09-03T05:37:24;16.20;54.00
38183;DHT22;23991;52.430;10.586;2022-09-03T05:39:49;16.20;53.90
38183;DHT22;23991;52.430;10.586;2022-09-03T05:42:15;16.20;53.90
38183;DHT22;23991;52.430;10.586;2022-09-03T05:44:41;16.30;53.90
38183;DHT22;23991;52.430;10.586;2022-09-03T05:47:07;16.30;53.90
38183;DHT22;23991;52.430;10.586;2022-09-03T05:49:33;16.40;53.80
38183;DHT22;23991;52.430;10.586;2022-09-03T05:51:58;16.40;53.60
38183;DHT22;23991;52.430;10.586;2022-09-03T05:54:24;16.50;53.30
38183;DHT22;23991;52.430;10.586;2022-09-03T05:56:50;16.70;53.20
38183;DHT22;23991;52.430;10.586;2022-09-03T05:59:16;16.70;53.10
38183;DHT22;23991;52.430;10.586;2022-09-03T06:01:43;16.80;52.80
38183;DHT22;23991;52.430;10.586;2022-09-03T06:04:11;16.90;52.50
38183;DHT22;23991;52.430;10.586;2022-09-03T06:06:39;17.10;52.50
38183;DHT22;23991;52.430;10.586;2022-09-03T06:09:08;17.10;52.20
38183;DHT22;23991;52.430;10.586;2022-09-03T06:11:37;17.20;51.80
38183;DHT22;23991;52.430;10.586;2022-09-03T06:14:05;17.30;51.60
38183;DHT22;23991;52.430;10.586;2022-09-03T06:16:32;17.50;51.40
38183;DHT22;23991;52.430;10.586;2022-09-03T06:18:59;17.50;51.60
38183;DHT22;23991;52.430;10.586;2022-09-03T06:21:24;17.70;50.80
38183;DHT22;23991;52.430;10.586;2022-09-03T06:23:52;17.80;50.60
38183;DHT22;23991;52.430;10.586;2022-09-03T06:26:18;17.80;50.70
38183;DHT22;23991;52.430;10.586;2022-09-03T06:28:46;18.00;50.20
38183;DHT22;23991;52.430;10.586;2022-09-03T06:31:14;18.10;49.80
38183;DHT22;23991;52.430;10.586;2022-09-03T06:33:40;18.30;49.70
38183;DHT22;23991;52.430;10.586;2022-09-03T06:36:11;18.50;49.40
38183;DHT22;23991;52.430;10.586;2022-09-03T06:38:38;18.80;48.70
38183;DHT22;23991;52.430;10.586;2022-09-03T06:41:06;19.00;47.90
38183;DHT22;23991;52.430;10.586;2022-09-03T06:43:35;19.30;47.30
38183;DHT22;23991;52.430;10.586;2022-09-03T06:46:12;19.40;46.70
38183;DHT22;23991;52.430;10.586;2022-09-03T06:48:39;19.50;46.40
38183;DHT22;23991;52.430;10.586;2022-09-03T06:51:10;19.60;46.60
38183;DHT22;23991;52.430;10.586;2022-09-03T06:53:37;19.80;46.00
38183;DHT22;23991;52.430;10.586;2022-09-03T06:56:06;20.10;45.80
38183;DHT22;23991;52.430;10.586;2022-09-03T06:58:34;20.50;44.80
38183;DHT22;23991;52.430;10.586;2022-09-03T07:01:04;20.70;44.30
38183;DHT22;23991;52.430;10.586;2022-09-03T07:03:32;20.80;43.60
38183;DHT22;23991;52.430;10.586;2022-09-03T07:06:02;20.90;43.50
38183;DHT22;23991;52.430;10.586;2022-09-03T07:08:29;21.20;43.00
38183;DHT22;23991;52.430;10.586;2022-09-03T07:10:58;21.30;42.60
38183;DHT22;23991;52.430;10.586;2022-09-03T07:13:24;21.50;41.90
38183;DHT22;23991;52.430;10.586;2022-09-03T07:18:25;22.20;40.90
38183;DHT22;23991;52.430;10.586;2022-09-03T07:20:51;22.40;40.10
38183;DHT22;23991;52.430;10.586;2022-09-03T07:23:16;22.70;39.70
38183;DHT22;23991;52.430;10.586;2022-09-03T07:25:42;22.80;39.80
38183;DHT22;23991;52.430;10.586;2022-09-03T07:28:08;23.10;38.90
38183;DHT22;23991;52.430;10.586;2022-09-03T07:30:33;23.30;38.30
38183;DHT22;23991;52.430;10.586;2022-09-03T07:32:59;23.60;38.30
38183;DHT22;23991;52.430;10.586;2022-09-03T07:35:28;23.90;37.40
38183;DHT22;23991;52.430;10.586;2022-09-03T07:37:54;24.10;37.30
38183;DHT22;23991;52.430;10.586;2022-09-03T07:40:19;24.40;36.60
38183;DHT22;23991;52.430;10.586;2022-09-03T07:42:45;24.60;36.50
38183;DHT22;23991;52.430;10.586;2022-09-03T07:45:12;25.00;36.10
38183;DHT22;23991;52.430;10.586;2022-09-03T07:47:45;25.20;35.60
38183;DHT22;23991;52.430;10.586;2022-09-03T07:50:11;25.30;35.10
38183;DHT22;23991;52.430;10.586;2022-09-03T07:52:37;25.50;34.90
38183;DHT22;23991;52.430;10.586;2022-09-03T07:55:03;25.80;34.50
38183;DHT22;23991;52.430;10.586;2022-09-03T07:57:29;25.80;34.50
38183;DHT22;23991;52.430;10.586;2022-09-03T07:59:54;26.20;33.70
38183;DHT22;23991;52.430;10.586;2022-09-03T08:02:20;26.50;33.10
38183;DHT22;23991;52.430;10.586;2022-09-03T08:04:46;26.50;33.20
38183;DHT22;23991;52.430;10.586;2022-09-03T08:07:11;27.00;32.80
38183;DHT22;23991;52.430;10.586;2022-09-03T08:09:37;27.40;31.60
38183;DHT22;23991;52.430;10.586;2022-09-03T08:12:03;27.40;31.20
38183;DHT22;23991;52.430;10.586;2022-09-03T08:14:28;27.70;30.90
38183;DHT22;23991;52.430;10.586;2022-09-03T08:16:56;28.20;30.60
38183;DHT22;23991;52.430;10.586;2022-09-03T08:19:24;28.20;30.50
38183;DHT22;23991;52.430;10.586;2022-09-03T08:21:49;28.50;29.90
38183;DHT22;23991;52.430;10.586;2022-09-03T08:24:16;28.20;30.10
38183;DHT22;23991;52.430;10.586;2022-09-03T08:26:43;28.30;30.40
38183;DHT22;23991;52.430;10.586;2022-09-03T08:29:09;28.70;29.60
38183;DHT22;23991;52.430;10.586;2022-09-03T08:31:35;28.80;29.30
38183;DHT22;23991;52.430;10.586;2022-09-03T08:34:02;29.20;29.10
38183;DHT22;23991;52.430;10.586;2022-09-03T08:36:35;29.20;28.70
38183;DHT22;23991;52.430;10.586;2022-09-03T08:39:04;29.30;28.70
38183;DHT22;23991;52.430;10.586;2022-09-03T08:57:40;30.90;26.60
38183;DHT22;23991;52.430;10.586;2022-09-03T09:00:08;30.90;26.20
38183;DHT22;23991;52.430;10.586;2022-09-03T09:08:07;31.80;25.50
38183;DHT22;23991;52.430;10.586;2022-09-03T09:10:44;31.70;25.20
38183;DHT22;23991;52.430;10.586;2022-09-03T09:13:23;31.90;25.10
38183;DHT22;23991;52.430;10.586;2022-09-03T09:18:49;32.20;24.60
38183;DHT22;23991;52.430;10.586;2022-09-03T09:21:39;32.60;24.40
38183;DHT22;23991;52.430;10.586;2022-09-03T09:24:18;32.90;24.20
38183;DHT22;23991;52.430;10.586;2022-09-03T09:26:46;32.90;23.90
38183;DHT22;23991;52.430;10.586;2022-09-03T09:29:13;33.10;23.60
38183;DHT22;23991;52.430;10.586;2022-09-03T09:31:40;33.20;23.70
38183;DHT22;23991;52.430;10.586;2022-09-03T09:34:09;33.10;23.60
38183;DHT22;23991;52.430;10.586;2022-09-03T09:36:42;33.50;23.60
38183;DHT22;23991;52.430;10.586;2022-09-03T09:39:11;33.80;22.50
38183;DHT22;23991;52.430;10.586;2022-09-03T09:41:40;34.20;22.50
38183;DHT22;23991;52.430;10.586;2022-09-03T09:44:06;34.50;22.10
38183;DHT22;23991;52.430;10.586;2022-09-03T09:46:36;34.60;21.80
38183;DHT22;23991;52.430;10.586;2022-09-03T09:49:17;34.60;21.40
38183;DHT22;23991;52.430;10.586;2022-09-03T09:51:48;34.60;20.60
38183;DHT22;23991;52.430;10.586;2022-09-03T09:54:18;34.90;20.50
38183;DHT22;23991;52.430;10.586;2022-09-03T09:57:22;35.20;20.20
38183;DHT22;23991;52.430;10.586;2022-09-03T09:59:48;35.60;20.50
38183;DHT22;23991;52.430;10.586;2022-09-03T10:02:25;35.50;19.70
38183;DHT22;23991;52.430;10.586;2022-09-03T10:04:52;35.30;19.60
38183;DHT22;23991;52.430;10.586;2022-09-03T10:09:58;35.90;19.70
38183;DHT22;23991;52.430;10.586;2022-09-03T10:12:31;36.50;18.70
38183;DHT22;23991;52.430;10.586;2022-09-03T10:15:21;36.70;18.80
38183;DHT22;23991;52.430;10.586;2022-09-03T10:20:20;36.70;18.60
38183;DHT22;23991;52.430;10.586;2022-09-03T10:23:17;36.50;19.00
38183;DHT22;23991;52.430;10.586;2022-09-03T10:28:56;36.60;18.50
38183;DHT22;23991;52.430;10.586;2022-09-03T10:31:35;36.40;18.70
38183;DHT22;23991;52.430;10.586;2022-09-03T10:34:17;36.90;18.10
38183;DHT22;23991;52.430;10.586;2022-09-03T10:50:33;37.20;17.70
38183;DHT22;23991;52.430;10.586;2022-09-03T10:53:12;37.60;17.60
38183;DHT22;23991;52.430;10.586;2022-09-03T10:55:59;37.30;17.30
38183;DHT22;23991;52.430;10.586;2022-09-03T11:06:23;38.20;16.70
38183;DHT22;23991;52.430;10.586;2022-09-03T11:09:16;38.30;16.60
38183;DHT22;23991;52.430;10.586;2022-09-03T11:11:59;37.90;16.70
38183;DHT22;23991;52.430;10.586;2022-09-03T11:14:35;38.00;16.60
38183;DHT22;23991;52.430;10.586;2022-09-03T11:17:20;37.80;16.90
38183;DHT22;23991;52.430;10.586;2022-09-03T11:22:19;38.40;16.30
38183;DHT22;23991;52.430;10.586;2022-09-03T11:24:55;38.60;16.50
38183;DHT22;23991;52.430;10.586;2022-09-03T11:30:01;38.70;16.20
38183;DHT22;23991;52.430;10.586;2022-09-03T11:35:15;38.80;16.30
38183;DHT22;23991;52.430;10.586;2022-09-03T11:37:58;38.60;16.10
38183;DHT22;23991;52.430;10.586;2022-09-03T11:43:34;39.10;15.80
38183;DHT22;23991;52.430;10.586;2022-09-03T11:48:47;39.30;15.70
38183;DHT22;23991;52.430;10.586;2022-09-03T11:53:59;39.40;15.70
38183;DHT22;23991;52.430;10.586;2022-09-03T11:56:26;39.40;15.60
38183;DHT22;23991;52.430;10.586;2022-09-03T12:01:52;39.50;15.30
38183;DHT22;23991;52.430;10.586;2022-09-03T12:04:30;38.90;15.80
38183;DHT22;23991;52.430;10.586;2022-09-03T12:07:13;38.90;16.00
38183;DHT22;23991;52.430;10.586;2022-09-03T12:12:56;39.50;15.50
38183;DHT22;23991;52.430;10.586;2022-09-03T12:18:26;39.20;15.40
38183;DHT22;23991;52.430;10.586;2022-09-03T12:23:49;39.10;15.40
38183;DHT22;23991;52.430;10.586;2022-09-03T12:26:17;39.00;15.50
38183;DHT22;23991;52.430;10.586;2022-09-03T12:28:49;38.90;15.70
38183;DHT22;23991;52.430;10.586;2022-09-03T12:31:27;38.90;15.40
38183;DHT22;23991;52.430;10.586;2022-09-03T12:34:04;39.00;15.60
38183;DHT22;23991;52.430;10.586;2022-09-03T12:36:38;39.10;15.30
38183;DHT22;23991;52.430;10.586;2022-09-03T12:39:15;39.30;15.30
38183;DHT22;23991;52.430;10.586;2022-09-03T12:42:01;39.60;15.10
38183;DHT22;23991;52.430;10.586;2022-09-03T12:44:37;39.30;15.20
38183;DHT22;23991;52.430;10.586;2022-09-03T12:47:06;39.10;15.00
38183;DHT22;23991;52.430;10.586;2022-09-03T12:49:36;39.20;15.30
38183;DHT22;23991;52.430;10.586;2022-09-03T12:55:39;39.90;14.80
38183;DHT22;23991;52.430;10.586;2022-09-03T12:58:04;39.80;14.90
38183;DHT22;23991;52.430;10.586;2022-09-03T13:00:34;39.20;15.00
38183;DHT22;23991;52.430;10.586;2022-09-03T13:03:05;39.10;15.30
38183;DHT22;23991;52.430;10.586;2022-09-03T13:05:35;39.20;15.00
38183;DHT22;23991;52.430;10.586;2022-09-03T13:08:06;39.40;15.10
38183;DHT22;23991;52.430;10.586;2022-09-03T13:10:38;39.30;14.90
38183;DHT22;23991;52.430;10.586;2022-09-03T13:13:26;39.50;15.00
38183;DHT22;23991;52.430;10.586;2022-09-03T13:29:56;39.30;14.70
38183;DHT22;23991;52.430;10.586;2022-09-03T13:32:29;38.40;15.40
38183;DHT22;23991;52.430;10.586;2022-09-03T13:35:06;38.30;15.90
38183;DHT22;23991;52.430;10.586;2022-09-03T13:37:44;38.70;15.60
38183;DHT22;23991;52.430;10.586;2022-09-03T13:40:41;38.80;15.30
38183;DHT22;23991;52.430;10.586;2022-09-03T13:43:23;38.60;15.50
38183;DHT22;23991;52.430;10.586;2022-09-03T13:45:56;38.30;15.90
38183;DHT22;23991;52.430;10.586;2022-09-03T13:51:42;38.30;15.70
38183;DHT22;23991;52.430;10.586;2022-09-03T13:54:22;38.50;15.90
38183;DHT22;23991;52.430;10.586;2022-09-03T13:57:04;38.40;15.80
38183;DHT22;23991;52.430;10.586;2022-09-03T13:59:43;38.50;15.60
38183;DHT22;23991;52.430;10.586;2022-09-03T14:05:08;38.60;15.60
38183;DHT22;23991;52.430;10.586;2022-09-03T14:12:54;38.50;15.60
38183;DHT22;23991;52.430;10.586;2022-09-03T14:15:35;38.60;15.50
38183;DHT22;23991;52.430;10.586;2022-09-03T14:21:02;38.10;15.50
38183;DHT22;23991;52.430;10.586;2022-09-03T14:26:21;38.00;15.60
38183;DHT22;23991;52.430;10.586;2022-09-03T14:28:57;38.10;15.50
38183;DHT22;23991;52.430;10.586;2022-09-03T14:37:20;37.00;16.20
38183;DHT22;23991;52.430;10.586;2022-09-03T14:45:21;37.20;16.30
38183;DHT22;23991;52.430;10.586;2022-09-03T14:59:49;36.40;17.20
38183;DHT22;23991;52.430;10.586;2022-09-03T15:08:13;36.30;17.60
38183;DHT22;23991;52.430;10.586;2022-09-03T15:10:47;36.10;17.70
38183;DHT22;23991;52.430;10.586;2022-09-03T15:13:31;36.10;17.60
38183;DHT22;23991;52.430;10.586;2022-09-03T15:24:27;35.60;17.60
38183;DHT22;23991;52.430;10.586;2022-09-03T15:30:10;35.20;18.00
38183;DHT22;23991;52.430;10.586;2022-09-03T15:35:09;35.20;18.00
38183;DHT22;23991;52.430;10.586;2022-09-03T15:37:38;35.10;18.20
38183;DHT22;23991;52.430;10.586;2022-09-03T15:43:24;34.80;18.80
38183;DHT22;23991;52.430;10.586;2022-09-03T15:46:01;34.80;18.80
38183;DHT22;23991;52.430;10.586;2022-09-03T15:49:01;34.90;18.60
38183;DHT22;23991;52.430;10.586;2022-09-03T15:51:45;34.90;18.40
38183;DHT22;23991;52.430;10.586;2022-09-03T15:54:35;34.60;18.80
38183;DHT22;23991;52.430;10.586;2022-09-03T15:57:16;34.60;18.90
38183;DHT22;23991;52.430;10.586;2022-09-03T16:02:22;34.10;19.00
38183;DHT22;23991;52.430;10.586;2022-09-03T16:04:58;34.20;18.90
38183;DHT22;23991;52.430;10.586;2022-09-03T16:07:40;33.80;19.30
38183;DHT22;23991;52.430;10.586;2022-09-03T16:10:16;33.30;19.80
38183;DHT22;23991;52.430;10.586;2022-09-03T16:12:51;33.10;20.00
38183;DHT22;23991;52.430;10.586;2022-09-03T16:17:56;32.70;20.40
38183;DHT22;23991;52.430;10.586;2022-09-03T16:23:19;32.40;20.80
38183;DHT22;23991;52.430;10.586;2022-09-03T16:25:56;32.20;20.90
38183;DHT22;23991;52.430;10.586;2022-09-03T16:28:47;31.90;21.40
38183;DHT22;23991;52.430;10.586;2022-09-03T16:31:28;31.80;21.30
38183;DHT22;23991;52.430;10.586;2022-09-03T16:34:13;31.60;21.70
38183;DHT22;23991;52.430;10.586;2022-09-03T16:37:17;31.50;21.90
38183;DHT22;23991;52.430;10.586;2022-09-03T16:39:51;31.50;21.90
38183;DHT22;23991;52.430;10.586;2022-09-03T16:42:43;31.20;22.00
38183;DHT22;23991;52.430;10.586;2022-09-03T16:50:55;30.90;22.60
38183;DHT22;23991;52.430;10.586;2022-09-03T16:54:42;30.50;22.90
38183;DHT22;23991;52.430;10.586;2022-09-03T16:56:45;30.20;23.40
38183;DHT22;23991;52.430;10.586;2022-09-03T16:59:39;29.70;24.00
38183;DHT22;23991;52.430;10.586;2022-09-03T17:02:30;29.50;24.40
38183;DHT22;23991;52.430;10.586;2022-09-03T17:05:06;29.30;24.50
38183;DHT22;23991;52.430;10.586;2022-09-03T17:22:22;28.40;25.80
38183;DHT22;23991;52.430;10.586;2022-09-03T17:24:52;28.30;26.00
38183;DHT22;23991;52.430;10.586;2022-09-03T17:39:10;28.20;26.60
38183;DHT22;23991;52.430;10.586;2022-09-03T17:41:49;28.10;26.80
38183;DHT22;23991;52.430;10.586;2022-09-03T17:44:21;27.80;27.40
38183;DHT22;23991;52.430;10.586;2022-09-03T17:47:03;27.70;27.70
38183;DHT22;23991;52.430;10.586;2022-09-03T17:49:40;27.80;27.50
38183;DHT22;23991;52.430;10.586;2022-09-03T17:52:31;27.80;27.40
38183;DHT22;23991;52.430;10.586;2022-09-03T17:55:10;27.60;28.40
38183;DHT22;23991;52.430;10.586;2022-09-03T17:57:49;27.60;28.70
38183;DHT22;23991;52.430;10.586;2022-09-03T18:00:36;27.50;28.00
38183;DHT22;23991;52.430;10.586;2022-09-03T18:03:18;27.30;28.40
38183;DHT22;23991;52.430;10.586;2022-09-03T18:05:49;27.20;28.30
38183;DHT22;23991;52.430;10.586;2022-09-03T18:11:20;27.00;28.70
38183;DHT22;23991;52.430;10.586;2022-09-03T18:14:04;26.70;29.50
38183;DHT22;23991;52.430;10.586;2022-09-03T18:16:33;26.70;29.10
38183;DHT22;23991;52.430;10.586;2022-09-03T18:21:57;26.50;30.10
38183;DHT22;23991;52.430;10.586;2022-09-03T18:25:01;26.40;30.00
38183;DHT22;23991;52.430;10.586;2022-09-03T18:27:49;26.30;30.10
38183;DHT22;23991;52.430;10.586;2022-09-03T18:30:36;26.20;30.20
38183;DHT22;23991;52.430;10.586;2022-09-03T18:33:23;26.20;30.50
38183;DHT22;23991;52.430;10.586;2022-09-03T18:36:08;25.90;31.10
38183;DHT22;23991;52.430;10.586;2022-09-03T18:39:06;25.70;31.30
38183;DHT22;23991;52.430;10.586;2022-09-03T18:42:01;25.60;31.60
38183;DHT22;23991;52.430;10.586;2022-09-03T18:48:14;25.50;32.00
38183;DHT22;23991;52.430;10.586;2022-09-03T18:51:11;25.20;32.30
38183;DHT22;23991;52.430;10.586;2022-09-03T19:01:34;24.70;33.30
38183;DHT22;23991;52.430;10.586;2022-09-03T19:04:29;24.60;33.40
38183;DHT22;23991;52.430;10.586;2022-09-03T19:07:33;24.30;33.80
38183;DHT22;23991;52.430;10.586;2022-09-03T19:10:25;24.20;34.00
38183;DHT22;23991;52.430;10.586;2022-09-03T19:13:36;24.10;34.10
38183;DHT22;23991;52.430;10.586;2022-09-03T19:20:04;23.80;34.40
38183;DHT22;23991;52.430;10.586;2022-09-03T19:22:49;23.70;34.60
38183;DHT22;23991;52.430;10.586;2022-09-03T19:25:34;23.60;35.00
38183;DHT22;23991;52.430;10.586;2022-09-03T19:31:15;23.40;35.40
38183;DHT22;23991;52.430;10.586;2022-09-03T19:40:33;23.10;35.90
38183;DHT22;23991;52.430;10.586;2022-09-03T19:46:46;22.80;36.20
38183;DHT22;23991;52.430;10.586;2022-09-03T19:52:29;22.70;36.60
38183;DHT22;23991;52.430;10.586;2022-09-03T19:55:20;22.50;36.80
38183;DHT22;23991;52.430;10.586;2022-09-03T19:58:16;22.50;36.90
38183;DHT22;23991;52.430;10.586;2022-09-03T20:01:04;22.30;37.10
38183;DHT22;23991;52.430;10.586;2022-09-03T20:03:49;22.30;37.20
38183;DHT22;23991;52.430;10.586;2022-09-03T20:06:34;22.20;37.50
38183;DHT22;23991;52.430;10.586;2022-09-03T20:09:21;22.20;37.60
38183;DHT22;23991;52.430;10.586;2022-09-03T20:12:07;22.10;37.80
38183;DHT22;23991;52.430;10.586;2022-09-03T20:14:34;22.00;37.90
38183;DHT22;23991;52.430;10.586;2022-09-03T20:20:03;21.80;38.30
38183;DHT22;23991;52.430;10.586;2022-09-03T20:22:43;21.70;38.40
38183;DHT22;23991;52.430;10.586;2022-09-03T20:25:18;21.70;38.60
38183;DHT22;23991;52.430;10.586;2022-09-03T20:28:04;21.70;38.60
38183;DHT22;23991;52.430;10.586;2022-09-03T20:30:45;21.60;38.80
38183;DHT22;23991;52.430;10.586;2022-09-03T20:33:25;21.50;39.10
38183;DHT22;23991;52.430;10.586;2022-09-03T20:39:05;21.40;39.30
38183;DHT22;23991;52.430;10.586;2022-09-03T20:41:56;21.30;39.40
38183;DHT22;23991;52.430;10.586;2022-09-03T20:50:02;21.20;39.80
38183;DHT22;23991;52.430;10.586;2022-09-03T20:52:53;21.10;39.90
38183;DHT22;23991;52.430;10.586;2022-09-03T20:55:41;21.00;40.00
38183;DHT22;23991;52.430;10.586;2022-09-03T20:58:16;21.00;40.10
38183;DHT22;23991;52.430;10.586;2022-09-03T21:03:40;20.90;40.40
38183;DHT22;23991;52.430;10.586;2022-09-03T21:09:29;20.80;40.50
38183;DHT22;23991;52.430;10.586;2022-09-03T21:12:30;20.80;40.70